sensor_id;sensor_type;location;lat;lon;timestamp;P1;durP1;ratioP1;P2;durP2;ratioP2
5785;SDS011;2919;48.630;9.000;2022-10-16T00:01:21;2.70;;;1.30;;
5785;SDS011;2919;48.630;9.000;2022-10-16T00:03:48;2.10;;;1.07;;
5785;SDS011;2919;48.630;9.000;2022-10-16T00:06:15;3.10;;;0.93;;
5785;SDS011;2919;48.630;9.000;2022-10-16T00:08:42;1.63;;;0.80;;
5785;SDS011;2919;48.630;9.000;2022-10-16T00:11:12;2.67;;;1.40;;
5785;SDS011;2919;48.630;9.000;2022-10-16T00:13:41;2.13;;;0.87;;
5785;SDS011;2919;48.630;9.000;2022-10-16T00:16:07;5.00;;;1.73;;
5785;SDS011;2919;48.630;9.000;2022-10-16T00:18:34;4.43;;;1.37;;
5785;SDS011;2919;48.630;9.000;2022-10-16T00:21:03;3.80;;;1.73;;
5785;SDS011;2919;48.630;9.000;2022-10-16T00:23:30;2.40;;;1.10;;
5785;SDS011;2919;48.630;9.000;2022-10-16T00:26:00;6.30;;;1.70;;
5785;SDS011;2919;48.630;9.000;2022-10-16T00:28:29;3.30;;;1.30;;
5785;SDS011;2919;48.630;9.000;2022-10-16T00:30:54;6.20;;;1.70;;
5785;SDS011;2919;48.630;9.000;2022-10-16T00:33:20;2.00;;;0.93;;
5785;SDS011;2919;48.630;9.000;2022-10-16T00:35:46;5.67;;;2.10;;
5785;SDS011;2919;48.630;9.000;2022-10-16T00:38:12;2.63;;;1.67;;
5785;SDS011;2919;48.630;9.000;2022-10-16T00:40:38;3.53;;;1.63;;
5785;SDS011;2919;48.630;9.000;2022-10-16T00:43:09;6.27;;;2.13;;
5785;SDS011;2919;48.630;9.000;2022-10-16T00:45:53;4.10;;;1.87;;
5785;SDS011;2919;48.630;9.000;2022-10-16T00:48:19;2.30;;;1.33;;
5785;SDS011;2919;48.630;9.000;2022-10-16T00:50:44;3.23;;;1.23;;
5785;SDS011;2919;48.630;9.000;2022-10-16T00:53:10;4.27;;;1.47;;
5785;SDS011;2919;48.630;9.000;2022-10-16T00:55:37;3.60;;;1.00;;
5785;SDS011;2919;48.630;9.000;2022-10-16T00:58:02;2.10;;;0.80;;
5785;SDS011;2919;48.630;9.000;2022-10-16T01:00:28;2.90;;;0.97;;
5785;SDS011;2919;48.630;9.000;2022-10-16T01:02:54;2.50;;;0.80;;
5785;SDS011;2919;48.630;9.000;2022-10-16T01:05:23;1.90;;;0.80;;
5785;SDS011;2919;48.630;9.000;2022-10-16T01:07:57;2.10;;;0.97;;
5785;SDS011;2919;48.630;9.000;2022-10-16T01:10:41;1.70;;;0.90;;
5785;SDS011;2919;48.630;9.000;2022-10-16T01:13:25;1.40;;;0.77;;
5785;SDS011;2919;48.630;9.000;2022-10-16T01:16:02;1.40;;;0.67;;
5785;SDS011;2919;48.630;9.000;2022-10-16T01:18:39;3.07;;;0.90;;
5785;SDS011;2919;48.630;9.000;2022-10-16T01:21:10;2.27;;;0.80;;
5785;SDS011;2919;48.630;9.000;2022-10-16T01:29:35;2.50;;;1.13;;
5785;SDS011;2919;48.630;9.000;2022-10-16T01:32:14;1.77;;;0.80;;
5785;SDS011;2919;48.630;9.000;2022-10-16T01:37:15;6.83;;;1.37;;
5785;SDS011;2919;48.630;9.000;2022-10-16T01:39:47;1.80;;;0.73;;
5785;SDS011;2919;48.630;9.000;2022-10-16T01:42:19;1.53;;;0.67;;
5785;SDS011;2919;48.630;9.000;2022-10-16T01:44:48;2.60;;;1.07;;
5785;SDS011;2919;48.630;9.000;2022-10-16T01:47:16;4.70;;;1.30;;
5785;SDS011;2919;48.630;9.000;2022-10-16T01:49:42;4.43;;;1.33;;
5785;SDS011;2919;48.630;9.000;2022-10-16T01:52:12;1.40;;;0.60;;
5785;SDS011;2919;48.630;9.000;2022-10-16T01:54:42;1.33;;;0.63;;
5785;SDS011;2919;48.630;9.000;2022-10-16T01:57:10;2.27;;;0.80;;
5785;SDS011;2919;48.630;9.000;2022-10-16T01:59:38;1.43;;;0.57;;
5785;SDS011;2919;48.630;9.000;2022-10-16T02:02:09;1.70;;;0.90;;
5785;SDS011;2919;48.630;9.000;2022-10-16T02:04:46;3.20;;;1.07;;
5785;SDS011;2919;48.630;9.000;2022-10-16T02:07:22;2.13;;;0.77;;
5785;SDS011;2919;48.630;9.000;2022-10-16T02:09:48;2.30;;;1.00;;
5785;SDS011;2919;48.630;9.000;2022-10-16T02:12:15;1.30;;;0.67;;
5785;SDS011;2919;48.630;9.000;2022-10-16T02:14:44;2.03;;;0.90;;
5785;SDS011;2919;48.630;9.000;2022-10-16T02:17:14;1.90;;;0.97;;
5785;SDS011;2919;48.630;9.000;2022-10-16T02:19:41;1.30;;;0.70;;
5785;SDS011;2919;48.630;9.000;2022-10-16T02:22:08;1.83;;;0.77;;
5785;SDS011;2919;48.630;9.000;2022-10-16T02:27:14;1.80;;;0.90;;
5785;SDS011;2919;48.630;9.000;2022-10-16T02:29:49;5.00;;;0.90;;
5785;SDS011;2919;48.630;9.000;2022-10-16T02:32:19;1.60;;;0.80;;
5785;SDS011;2919;48.630;9.000;2022-10-16T02:34:48;1.40;;;0.73;;
5785;SDS011;2919;48.630;9.000;2022-10-16T02:37:16;1.83;;;0.70;;
5785;SDS011;2919;48.630;9.000;2022-10-16T02:39:42;1.57;;;0.87;;
5785;SDS011;2919;48.630;9.000;2022-10-16T02:42:12;1.40;;;0.70;;
5785;SDS011;2919;48.630;9.000;2022-10-16T02:44:38;3.07;;;0.80;;
5785;SDS011;2919;48.630;9.000;2022-10-16T02:47:04;2.33;;;0.70;;
5785;SDS011;2919;48.630;9.000;2022-10-16T02:49:29;1.90;;;1.10;;
5785;SDS011;2919;48.630;9.000;2022-10-16T02:51:55;1.73;;;0.80;;
5785;SDS011;2919;48.630;9.000;2022-10-16T02:54:21;1.70;;;0.70;;
5785;SDS011;2919;48.630;9.000;2022-10-16T02:56:46;1.80;;;0.80;;
5785;SDS011;2919;48.630;9.000;2022-10-16T02:59:12;2.47;;;1.10;;
5785;SDS011;2919;48.630;9.000;2022-10-16T03:01:37;1.60;;;0.90;;
5785;SDS011;2919;48.630;9.000;2022-10-16T03:04:03;3.23;;;0.97;;
5785;SDS011;2919;48.630;9.000;2022-10-16T03:06:29;4.10;;;1.27;;
5785;SDS011;2919;48.630;9.000;2022-10-16T03:08:54;1.40;;;0.70;;
5785;SDS011;2919;48.630;9.000;2022-10-16T03:11:20;1.80;;;0.77;;
5785;SDS011;2919;48.630;9.000;2022-10-16T03:13:45;4.63;;;1.23;;
5785;SDS011;2919;48.630;9.000;2022-10-16T03:16:11;1.50;;;0.80;;
5785;SDS011;2919;48.630;9.000;2022-10-16T03:18:36;2.30;;;0.60;;
5785;SDS011;2919;48.630;9.000;2022-10-16T03:21:02;4.07;;;1.10;;
5785;SDS011;2919;48.630;9.000;2022-10-16T03:23:28;1.67;;;0.73;;
5785;SDS011;2919;48.630;9.000;2022-10-16T03:25:54;1.83;;;0.80;;
5785;SDS011;2919;48.630;9.000;2022-10-16T03:28:19;1.73;;;0.90;;
5785;SDS011;2919;48.630;9.000;2022-10-16T03:30:45;2.33;;;0.60;;
5785;SDS011;2919;48.630;9.000;2022-10-16T03:33:11;8.40;;;1.10;;
5785;SDS011;2919;48.630;9.000;2022-10-16T03:35:36;1.90;;;0.87;;
5785;SDS011;2919;48.630;9.000;2022-10-16T03:38:02;2.83;;;0.87;;
5785;SDS011;2919;48.630;9.000;2022-10-16T03:40:28;2.00;;;0.90;;
5785;SDS011;2919;48.630;9.000;2022-10-16T03:42:54;1.90;;;0.80;;
5785;SDS011;2919;48.630;9.000;2022-10-16T03:45:22;2.00;;;0.83;;
5785;SDS011;2919;48.630;9.000;2022-10-16T03:47:48;4.50;;;0.93;;
5785;SDS011;2919;48.630;9.000;2022-10-16T03:50:13;1.57;;;0.70;;
5785;SDS011;2919;48.630;9.000;2022-10-16T03:52:39;2.10;;;0.80;;
5785;SDS011;2919;48.630;9.000;2022-10-16T03:55:05;1.40;;;0.70;;
5785;SDS011;2919;48.630;9.000;2022-10-16T03:57:31;1.60;;;0.90;;
5785;SDS011;2919;48.630;9.000;2022-10-16T03:59:57;1.30;;;0.60;;
5785;SDS011;2919;48.630;9.000;2022-10-16T04:02:22;1.77;;;0.77;;
5785;SDS011;2919;48.630;9.000;2022-10-16T04:04:48;1.97;;;0.80;;
5785;SDS011;2919;48.630;9.000;2022-10-16T04:07:14;1.90;;;1.10;;
5785;SDS011;2919;48.630;9.000;2022-10-16T04:09:39;1.90;;;0.70;;
5785;SDS011;2919;48.630;9.000;2022-10-16T04:12:05;2.13;;;0.90;;
5785;SDS011;2919;48.630;9.000;2022-10-16T04:14:31;1.47;;;0.70;;
5785;SDS011;2919;48.630;9.000;2022-10-16T04:16:56;1.70;;;0.80;;
5785;SDS011;2919;48.630;9.000;2022-10-16T04:19:22;1.40;;;0.70;;
5785;SDS011;2919;48.630;9.000;2022-10-16T04:21:47;1.40;;;0.70;;
5785;SDS011;2919;48.630;9.000;2022-10-16T04:24:13;1.37;;;0.60;;
5785;SDS011;2919;48.630;9.000;2022-10-16T04:26:38;5.77;;;0.80;;
5785;SDS011;2919;48.630;9.000;2022-10-16T04:29:04;1.50;;;0.70;;
5785;SDS011;2919;48.630;9.000;2022-10-16T04:31:31;1.77;;;0.90;;
5785;SDS011;2919;48.630;9.000;2022-10-16T04:33:56;1.50;;;0.60;;
5785;SDS011;2919;48.630;9.000;2022-10-16T04:36:22;1.50;;;0.70;;
5785;SDS011;2919;48.630;9.000;2022-10-16T04:38:47;2.53;;;0.93;;
5785;SDS011;2919;48.630;9.000;2022-10-16T04:41:13;2.23;;;1.10;;
5785;SDS011;2919;48.630;9.000;2022-10-16T04:43:39;1.83;;;0.80;;
5785;SDS011;2919;48.630;9.000;2022-10-16T04:46:04;2.23;;;0.80;;
5785;SDS011;2919;48.630;9.000;2022-10-16T04:48:30;6.60;;;1.57;;
5785;SDS011;2919;48.630;9.000;2022-10-16T04:50:56;14.43;;;1.40;;
5785;SDS011;2919;48.630;9.000;2022-10-16T04:53:22;1.40;;;0.70;;
5785;SDS011;2919;48.630;9.000;2022-10-16T04:55:48;4.70;;;0.90;;
5785;SDS011;2919;48.630;9.000;2022-10-16T04:58:14;7.20;;;0.80;;
5785;SDS011;2919;48.630;9.000;2022-10-16T05:00:39;2.57;;;0.90;;
5785;SDS011;2919;48.630;9.000;2022-10-16T05:03:05;2.33;;;0.93;;
5785;SDS011;2919;48.630;9.000;2022-10-16T05:05:33;1.87;;;0.90;;
5785;SDS011;2919;48.630;9.000;2022-10-16T05:08:00;1.93;;;0.80;;
5785;SDS011;2919;48.630;9.000;2022-10-16T05:10:26;2.10;;;0.80;;
5785;SDS011;2919;48.630;9.000;2022-10-16T05:12:51;1.30;;;0.60;;
5785;SDS011;2919;48.630;9.000;2022-10-16T05:15:17;1.30;;;0.60;;
5785;SDS011;2919;48.630;9.000;2022-10-16T05:17:43;1.70;;;0.93;;
5785;SDS011;2919;48.630;9.000;2022-10-16T05:20:09;1.33;;;0.60;;
5785;SDS011;2919;48.630;9.000;2022-10-16T05:22:35;2.43;;;1.17;;
5785;SDS011;2919;48.630;9.000;2022-10-16T05:25:00;1.80;;;0.93;;
5785;SDS011;2919;48.630;9.000;2022-10-16T05:27:26;1.63;;;0.90;;
5785;SDS011;2919;48.630;9.000;2022-10-16T05:29:52;2.93;;;1.33;;
5785;SDS011;2919;48.630;9.000;2022-10-16T05:32:18;1.97;;;0.77;;
5785;SDS011;2919;48.630;9.000;2022-10-16T05:34:44;2.93;;;0.67;;
5785;SDS011;2919;48.630;9.000;2022-10-16T05:37:10;1.80;;;0.87;;
5785;SDS011;2919;48.630;9.000;2022-10-16T05:39:37;1.57;;;0.70;;
5785;SDS011;2919;48.630;9.000;2022-10-16T05:42:03;5.47;;;1.03;;
5785;SDS011;2919;48.630;9.000;2022-10-16T05:44:30;2.10;;;1.10;;
5785;SDS011;2919;48.630;9.000;2022-10-16T05:46:55;2.90;;;1.07;;
5785;SDS011;2919;48.630;9.000;2022-10-16T05:49:21;1.83;;;1.00;;
5785;SDS011;2919;48.630;9.000;2022-10-16T05:51:46;2.70;;;1.43;;
5785;SDS011;2919;48.630;9.000;2022-10-16T05:54:12;1.73;;;0.90;;
5785;SDS011;2919;48.630;9.000;2022-10-16T05:56:38;1.40;;;0.70;;
5785;SDS011;2919;48.630;9.000;2022-10-16T05:59:04;2.03;;;1.23;;
5785;SDS011;2919;48.630;9.000;2022-10-16T06:01:30;5.00;;;1.50;;
5785;SDS011;2919;48.630;9.000;2022-10-16T06:03:56;1.23;;;0.53;;
5785;SDS011;2919;48.630;9.000;2022-10-16T06:06:23;1.70;;;0.80;;
5785;SDS011;2919;48.630;9.000;2022-10-16T06:08:51;1.97;;;0.90;;
5785;SDS011;2919;48.630;9.000;2022-10-16T06:11:19;2.40;;;1.00;;
5785;SDS011;2919;48.630;9.000;2022-10-16T06:13:53;1.50;;;0.80;;
5785;SDS011;2919;48.630;9.000;2022-10-16T06:16:21;2.17;;;0.90;;
5785;SDS011;2919;48.630;9.000;2022-10-16T06:18:50;1.20;;;0.50;;
5785;SDS011;2919;48.630;9.000;2022-10-16T06:21:17;3.53;;;1.20;;
5785;SDS011;2919;48.630;9.000;2022-10-16T06:23:45;3.20;;;1.10;;
5785;SDS011;2919;48.630;9.000;2022-10-16T06:26:12;5.40;;;1.03;;
5785;SDS011;2919;48.630;9.000;2022-10-16T06:28:40;2.40;;;1.00;;
5785;SDS011;2919;48.630;9.000;2022-10-16T06:31:07;6.00;;;1.37;;
5785;SDS011;2919;48.630;9.000;2022-10-16T06:33:34;2.77;;;1.60;;
5785;SDS011;2919;48.630;9.000;2022-10-16T06:36:00;1.80;;;1.00;;
5785;SDS011;2919;48.630;9.000;2022-10-16T06:38:28;3.50;;;1.40;;
5785;SDS011;2919;48.630;9.000;2022-10-16T06:40:54;2.77;;;1.50;;
5785;SDS011;2919;48.630;9.000;2022-10-16T06:43:20;3.93;;;1.27;;
5785;SDS011;2919;48.630;9.000;2022-10-16T06:45:55;2.00;;;0.97;;
5785;SDS011;2919;48.630;9.000;2022-10-16T06:48:21;3.87;;;0.80;;
5785;SDS011;2919;48.630;9.000;2022-10-16T06:50:55;2.10;;;0.83;;
5785;SDS011;2919;48.630;9.000;2022-10-16T06:53:24;6.10;;;1.20;;
5785;SDS011;2919;48.630;9.000;2022-10-16T06:55:51;5.00;;;1.20;;
5785;SDS011;2919;48.630;9.000;2022-10-16T06:58:16;14.43;;;1.00;;
5785;SDS011;2919;48.630;9.000;2022-10-16T07:00:42;2.43;;;1.00;;
5785;SDS011;2919;48.630;9.000;2022-10-16T07:03:07;2.93;;;1.07;;
5785;SDS011;2919;48.630;9.000;2022-10-16T07:05:37;1.57;;;0.80;;
5785;SDS011;2919;48.630;9.000;2022-10-16T07:08:03;2.07;;;0.90;;
5785;SDS011;2919;48.630;9.000;2022-10-16T07:10:30;3.47;;;1.00;;
5785;SDS011;2919;48.630;9.000;2022-10-16T07:12:56;2.20;;;0.93;;
5785;SDS011;2919;48.630;9.000;2022-10-16T07:15:22;8.73;;;0.80;;
5785;SDS011;2919;48.630;9.000;2022-10-16T07:17:47;4.23;;;0.80;;
5785;SDS011;2919;48.630;9.000;2022-10-16T07:20:13;2.27;;;0.77;;
5785;SDS011;2919;48.630;9.000;2022-10-16T07:22:38;2.57;;;1.00;;
5785;SDS011;2919;48.630;9.000;2022-10-16T07:25:04;8.50;;;0.90;;
5785;SDS011;2919;48.630;9.000;2022-10-16T07:27:30;1.87;;;0.97;;
5785;SDS011;2919;48.630;9.000;2022-10-16T07:29:56;1.87;;;0.80;;
5785;SDS011;2919;48.630;9.000;2022-10-16T07:32:21;2.80;;;0.80;;
5785;SDS011;2919;48.630;9.000;2022-10-16T07:34:47;6.10;;;1.27;;
5785;SDS011;2919;48.630;9.000;2022-10-16T07:37:13;1.33;;;0.70;;
5785;SDS011;2919;48.630;9.000;2022-10-16T07:39:38;3.13;;;1.30;;
5785;SDS011;2919;48.630;9.000;2022-10-16T07:42:04;8.53;;;1.70;;
5785;SDS011;2919;48.630;9.000;2022-10-16T07:44:29;1.70;;;0.97;;
5785;SDS011;2919;48.630;9.000;2022-10-16T07:46:55;2.27;;;1.00;;
5785;SDS011;2919;48.630;9.000;2022-10-16T07:49:21;1.50;;;0.77;;
5785;SDS011;2919;48.630;9.000;2022-10-16T07:51:46;1.30;;;0.63;;
5785;SDS011;2919;48.630;9.000;2022-10-16T07:54:12;2.60;;;0.93;;
5785;SDS011;2919;48.630;9.000;2022-10-16T07:56:37;1.60;;;0.87;;
5785;SDS011;2919;48.630;9.000;2022-10-16T07:59:03;1.90;;;0.73;;
5785;SDS011;2919;48.630;9.000;2022-10-16T08:01:28;2.93;;;0.90;;
5785;SDS011;2919;48.630;9.000;2022-10-16T08:03:54;1.60;;;0.80;;
5785;SDS011;2919;48.630;9.000;2022-10-16T08:06:20;2.27;;;0.80;;
5785;SDS011;2919;48.630;9.000;2022-10-16T08:08:47;1.70;;;0.80;;
5785;SDS011;2919;48.630;9.000;2022-10-16T08:11:13;1.90;;;0.80;;
5785;SDS011;2919;48.630;9.000;2022-10-16T08:13:40;1.30;;;0.60;;
5785;SDS011;2919;48.630;9.000;2022-10-16T08:16:06;1.90;;;1.00;;
5785;SDS011;2919;48.630;9.000;2022-10-16T08:18:36;2.53;;;0.90;;
5785;SDS011;2919;48.630;9.000;2022-10-16T08:21:04;2.83;;;1.00;;
5785;SDS011;2919;48.630;9.000;2022-10-16T08:23:31;1.87;;;1.10;;
5785;SDS011;2919;48.630;9.000;2022-10-16T08:26:03;1.53;;;0.67;;
5785;SDS011;2919;48.630;9.000;2022-10-16T08:28:30;1.53;;;0.70;;
5785;SDS011;2919;48.630;9.000;2022-10-16T08:30:56;1.50;;;0.60;;
5785;SDS011;2919;48.630;9.000;2022-10-16T08:33:29;1.87;;;0.90;;
5785;SDS011;2919;48.630;9.000;2022-10-16T08:35:54;1.47;;;0.80;;
5785;SDS011;2919;48.630;9.000;2022-10-16T08:38:20;1.50;;;0.80;;
5785;SDS011;2919;48.630;9.000;2022-10-16T08:40:46;1.73;;;0.70;;
5785;SDS011;2919;48.630;9.000;2022-10-16T08:48:52;2.63;;;0.80;;
5785;SDS011;2919;48.630;9.000;2022-10-16T08:53:49;3.30;;;0.73;;
5785;SDS011;2919;48.630;9.000;2022-10-16T08:56:17;2.30;;;0.73;;
5785;SDS011;2919;48.630;9.000;2022-10-16T08:58:43;2.30;;;0.93;;
5785;SDS011;2919;48.630;9.000;2022-10-16T09:01:12;1.57;;;0.70;;
5785;SDS011;2919;48.630;9.000;2022-10-16T09:07:04;1.67;;;0.83;;
5785;SDS011;2919;48.630;9.000;2022-10-16T09:09:20;1.73;;;0.80;;
5785;SDS011;2919;48.630;9.000;2022-10-16T09:12:04;2.27;;;0.90;;
5785;SDS011;2919;48.630;9.000;2022-10-16T09:15:01;1.33;;;0.60;;
5785;SDS011;2919;48.630;9.000;2022-10-16T09:21:37;2.70;;;0.90;;
5785;SDS011;2919;48.630;9.000;2022-10-16T09:23:46;1.80;;;1.00;;
5785;SDS011;2919;48.630;9.000;2022-10-16T09:26:13;1.90;;;0.90;;
5785;SDS011;2919;48.630;9.000;2022-10-16T09:28:40;1.80;;;0.80;;
5785;SDS011;2919;48.630;9.000;2022-10-16T09:31:12;3.00;;;1.00;;
5785;SDS011;2919;48.630;9.000;2022-10-16T09:33:41;1.97;;;0.80;;
5785;SDS011;2919;48.630;9.000;2022-10-16T09:36:07;2.40;;;1.13;;
5785;SDS011;2919;48.630;9.000;2022-10-16T09:38:35;1.73;;;1.03;;
5785;SDS011;2919;48.630;9.000;2022-10-16T09:41:20;1.50;;;0.63;;
5785;SDS011;2919;48.630;9.000;2022-10-16T09:43:48;2.57;;;1.10;;
5785;SDS011;2919;48.630;9.000;2022-10-16T09:46:28;3.70;;;0.87;;
5785;SDS011;2919;48.630;9.000;2022-10-16T09:49:02;2.20;;;1.10;;
5785;SDS011;2919;48.630;9.000;2022-10-16T09:51:48;1.30;;;0.50;;
5785;SDS011;2919;48.630;9.000;2022-10-16T09:54:19;2.80;;;1.00;;
5785;SDS011;2919;48.630;9.000;2022-10-16T09:56:46;1.77;;;0.73;;
5785;SDS011;2919;48.630;9.000;2022-10-16T09:59:20;2.30;;;0.80;;
5785;SDS011;2919;48.630;9.000;2022-10-16T10:01:53;7.23;;;1.17;;
5785;SDS011;2919;48.630;9.000;2022-10-16T10:04:20;1.80;;;0.90;;
5785;SDS011;2919;48.630;9.000;2022-10-16T10:11:55;1.97;;;0.70;;
5785;SDS011;2919;48.630;9.000;2022-10-16T10:17:12;1.40;;;0.53;;
5785;SDS011;2919;48.630;9.000;2022-10-16T10:27:39;2.23;;;0.80;;
5785;SDS011;2919;48.630;9.000;2022-10-16T10:30:22;3.93;;;0.73;;
5785;SDS011;2919;48.630;9.000;2022-10-16T10:35:22;2.60;;;1.33;;
5785;SDS011;2919;48.630;9.000;2022-10-16T10:38:27;1.90;;;0.70;;
5785;SDS011;2919;48.630;9.000;2022-10-16T10:41:18;1.70;;;0.80;;
5785;SDS011;2919;48.630;9.000;2022-10-16T11:01:33;3.03;;;0.70;;
5785;SDS011;2919;48.630;9.000;2022-10-16T11:07:03;6.50;;;0.97;;
5785;SDS011;2919;48.630;9.000;2022-10-16T11:09:38;2.20;;;0.70;;
5785;SDS011;2919;48.630;9.000;2022-10-16T11:17:52;2.57;;;0.90;;
5785;SDS011;2919;48.630;9.000;2022-10-16T11:20:28;1.50;;;0.63;;
5785;SDS011;2919;48.630;9.000;2022-10-16T11:22:59;1.90;;;0.70;;
5785;SDS011;2919;48.630;9.000;2022-10-16T11:25:45;1.60;;;0.60;;
5785;SDS011;2919;48.630;9.000;2022-10-16T11:28:14;3.83;;;0.60;;
5785;SDS011;2919;48.630;9.000;2022-10-16T11:33:59;1.60;;;0.80;;
5785;SDS011;2919;48.630;9.000;2022-10-16T11:36:52;1.93;;;0.90;;
5785;SDS011;2919;48.630;9.000;2022-10-16T11:39:24;2.23;;;0.90;;
5785;SDS011;2919;48.630;9.000;2022-10-16T11:41:58;2.97;;;1.00;;
5785;SDS011;2919;48.630;9.000;2022-10-16T11:47:27;2.20;;;0.90;;
5785;SDS011;2919;48.630;9.000;2022-10-16T11:50:06;1.67;;;0.80;;
5785;SDS011;2919;48.630;9.000;2022-10-16T11:52:43;1.60;;;0.70;;
5785;SDS011;2919;48.630;9.000;2022-10-16T11:55:21;2.20;;;0.90;;
5785;SDS011;2919;48.630;9.000;2022-10-16T11:57:57;2.03;;;0.77;;
5785;SDS011;2919;48.630;9.000;2022-10-16T12:00:45;2.33;;;1.00;;
5785;SDS011;2919;48.630;9.000;2022-10-16T12:03:26;1.93;;;0.87;;
5785;SDS011;2919;48.630;9.000;2022-10-16T12:08:45;1.97;;;0.87;;
5785;SDS011;2919;48.630;9.000;2022-10-16T12:16:36;3.40;;;1.00;;
5785;SDS011;2919;48.630;9.000;2022-10-16T12:19:11;1.93;;;0.73;;
5785;SDS011;2919;48.630;9.000;2022-10-16T12:21:38;2.80;;;0.83;;
5785;SDS011;2919;48.630;9.000;2022-10-16T12:24:04;3.13;;;1.20;;
5785;SDS011;2919;48.630;9.000;2022-10-16T12:26:38;1.60;;;0.80;;
5785;SDS011;2919;48.630;9.000;2022-10-16T12:29:26;4.23;;;0.90;;
5785;SDS011;2919;48.630;9.000;2022-10-16T12:31:54;2.00;;;0.90;;
5785;SDS011;2919;48.630;9.000;2022-10-16T12:34:21;2.30;;;1.10;;
5785;SDS011;2919;48.630;9.000;2022-10-16T12:36:47;2.00;;;0.63;;
5785;SDS011;2919;48.630;9.000;2022-10-16T12:39:20;2.90;;;1.27;;
5785;SDS011;2919;48.630;9.000;2022-10-16T12:41:47;7.80;;;1.13;;
5785;SDS011;2919;48.630;9.000;2022-10-16T12:44:23;2.10;;;1.23;;
5785;SDS011;2919;48.630;9.000;2022-10-16T12:46:51;4.27;;;1.10;;
5785;SDS011;2919;48.630;9.000;2022-10-16T12:49:50;1.97;;;0.97;;
5785;SDS011;2919;48.630;9.000;2022-10-16T12:55:16;1.90;;;0.70;;
5785;SDS011;2919;48.630;9.000;2022-10-16T13:06:30;3.27;;;0.90;;
5785;SDS011;2919;48.630;9.000;2022-10-16T13:12:11;14.00;;;1.60;;
5785;SDS011;2919;48.630;9.000;2022-10-16T13:18:00;2.60;;;1.20;;
5785;SDS011;2919;48.630;9.000;2022-10-16T13:20:33;1.60;;;0.70;;
5785;SDS011;2919;48.630;9.000;2022-10-16T13:23:09;1.77;;;0.80;;
5785;SDS011;2919;48.630;9.000;2022-10-16T13:28:13;3.43;;;1.00;;
5785;SDS011;2919;48.630;9.000;2022-10-16T13:30:53;1.90;;;0.90;;
5785;SDS011;2919;48.630;9.000;2022-10-16T13:35:59;2.53;;;1.10;;
5785;SDS011;2919;48.630;9.000;2022-10-16T13:38:30;2.50;;;1.20;;
5785;SDS011;2919;48.630;9.000;2022-10-16T13:41:13;2.10;;;0.90;;
5785;SDS011;2919;48.630;9.000;2022-10-16T13:48:41;2.37;;;0.90;;
5785;SDS011;2919;48.630;9.000;2022-10-16T13:53:36;2.17;;;0.73;;
5785;SDS011;2919;48.630;9.000;2022-10-16T13:56:03;8.93;;;0.70;;
5785;SDS011;2919;48.630;9.000;2022-10-16T13:58:30;1.90;;;0.80;;
5785;SDS011;2919;48.630;9.000;2022-10-16T14:01:05;1.80;;;0.97;;
5785;SDS011;2919;48.630;9.000;2022-10-16T14:03:41;1.80;;;0.93;;
5785;SDS011;2919;48.630;9.000;2022-10-16T14:06:11;1.73;;;0.97;;
5785;SDS011;2919;48.630;9.000;2022-10-16T14:08:42;2.17;;;0.93;;
5785;SDS011;2919;48.630;9.000;2022-10-16T14:11:11;4.63;;;1.33;;
5785;SDS011;2919;48.630;9.000;2022-10-16T14:13:38;2.40;;;1.13;;
5785;SDS011;2919;48.630;9.000;2022-10-16T14:16:09;2.17;;;1.20;;
5785;SDS011;2919;48.630;9.000;2022-10-16T14:18:44;1.70;;;0.90;;
5785;SDS011;2919;48.630;9.000;2022-10-16T14:21:15;2.43;;;0.97;;
5785;SDS011;2919;48.630;9.000;2022-10-16T14:23:41;3.10;;;1.10;;
5785;SDS011;2919;48.630;9.000;2022-10-16T14:28:33;1.50;;;0.60;;
5785;SDS011;2919;48.630;9.000;2022-10-16T14:31:00;2.20;;;1.17;;
5785;SDS011;2919;48.630;9.000;2022-10-16T14:38:27;4.90;;;3.23;;
5785;SDS011;2919;48.630;9.000;2022-10-16T14:40:52;5.10;;;2.47;;
5785;SDS011;2919;48.630;9.000;2022-10-16T14:43:22;4.20;;;2.53;;
5785;SDS011;2919;48.630;9.000;2022-10-16T14:45:54;3.47;;;1.50;;
5785;SDS011;2919;48.630;9.000;2022-10-16T14:48:21;1.80;;;0.90;;
5785;SDS011;2919;48.630;9.000;2022-10-16T14:50:47;2.10;;;1.10;;
5785;SDS011;2919;48.630;9.000;2022-10-16T14:53:13;2.23;;;0.90;;
5785;SDS011;2919;48.630;9.000;2022-10-16T14:55:39;1.50;;;0.73;;
5785;SDS011;2919;48.630;9.000;2022-10-16T14:58:09;5.60;;;1.10;;
5785;SDS011;2919;48.630;9.000;2022-10-16T15:00:48;1.90;;;1.00;;
5785;SDS011;2919;48.630;9.000;2022-10-16T15:03:14;1.93;;;0.93;;
5785;SDS011;2919;48.630;9.000;2022-10-16T15:05:40;2.40;;;1.00;;
5785;SDS011;2919;48.630;9.000;2022-10-16T15:08:06;2.27;;;1.03;;
5785;SDS011;2919;48.630;9.000;2022-10-16T15:10:33;2.30;;;0.97;;
5785;SDS011;2919;48.630;9.000;2022-10-16T15:13:03;3.00;;;1.07;;
5785;SDS011;2919;48.630;9.000;2022-10-16T15:15:33;2.43;;;1.10;;
5785;SDS011;2919;48.630;9.000;2022-10-16T15:18:04;1.67;;;0.93;;
5785;SDS011;2919;48.630;9.000;2022-10-16T15:20:31;2.00;;;1.07;;
5785;SDS011;2919;48.630;9.000;2022-10-16T15:23:03;3.17;;;1.30;;
5785;SDS011;2919;48.630;9.000;2022-10-16T15:28:00;5.33;;;1.07;;
5785;SDS011;2919;48.630;9.000;2022-10-16T15:30:27;3.93;;;1.00;;
5785;SDS011;2919;48.630;9.000;2022-10-16T15:32:53;1.70;;;0.93;;
5785;SDS011;2919;48.630;9.000;2022-10-16T15:35:19;2.80;;;1.17;;
5785;SDS011;2919;48.630;9.000;2022-10-16T15:37:46;2.50;;;1.20;;
5785;SDS011;2919;48.630;9.000;2022-10-16T15:40:12;2.60;;;0.97;;
5785;SDS011;2919;48.630;9.000;2022-10-16T15:42:37;2.60;;;1.00;;
5785;SDS011;2919;48.630;9.000;2022-10-16T15:45:03;2.63;;;1.00;;
5785;SDS011;2919;48.630;9.000;2022-10-16T15:47:31;1.70;;;0.80;;
5785;SDS011;2919;48.630;9.000;2022-10-16T15:49:56;3.33;;;1.30;;
5785;SDS011;2919;48.630;9.000;2022-10-16T15:52:22;2.07;;;1.10;;
5785;SDS011;2919;48.630;9.000;2022-10-16T15:54:48;4.27;;;1.90;;
5785;SDS011;2919;48.630;9.000;2022-10-16T15:57:13;2.53;;;1.27;;
5785;SDS011;2919;48.630;9.000;2022-10-16T15:59:39;5.67;;;1.47;;
5785;SDS011;2919;48.630;9.000;2022-10-16T16:02:05;4.90;;;1.50;;
5785;SDS011;2919;48.630;9.000;2022-10-16T16:04:30;3.10;;;1.50;;
5785;SDS011;2919;48.630;9.000;2022-10-16T16:06:56;8.03;;;1.60;;
5785;SDS011;2919;48.630;9.000;2022-10-16T16:09:22;2.60;;;1.77;;
5785;SDS011;2919;48.630;9.000;2022-10-16T16:11:48;7.73;;;1.57;;
5785;SDS011;2919;48.630;9.000;2022-10-16T16:14:14;3.03;;;1.60;;
5785;SDS011;2919;48.630;9.000;2022-10-16T16:16:40;2.47;;;1.10;;
5785;SDS011;2919;48.630;9.000;2022-10-16T16:19:07;3.97;;;1.50;;
5785;SDS011;2919;48.630;9.000;2022-10-16T16:21:33;7.23;;;2.23;;
5785;SDS011;2919;48.630;9.000;2022-10-16T16:23:59;11.53;;;4.00;;
5785;SDS011;2919;48.630;9.000;2022-10-16T16:26:28;12.63;;;4.83;;
5785;SDS011;2919;48.630;9.000;2022-10-16T16:29:01;23.57;;;6.60;;
5785;SDS011;2919;48.630;9.000;2022-10-16T16:31:28;21.03;;;5.70;;
5785;SDS011;2919;48.630;9.000;2022-10-16T16:33:55;20.10;;;5.57;;
5785;SDS011;2919;48.630;9.000;2022-10-16T16:36:22;12.20;;;4.47;;
5785;SDS011;2919;48.630;9.000;2022-10-16T16:38:48;8.97;;;3.70;;
5785;SDS011;2919;48.630;9.000;2022-10-16T16:41:18;10.40;;;3.73;;
5785;SDS011;2919;48.630;9.000;2022-10-16T16:43:45;10.73;;;3.37;;
5785;SDS011;2919;48.630;9.000;2022-10-16T16:46:12;4.17;;;2.40;;
5785;SDS011;2919;48.630;9.000;2022-10-16T16:48:39;5.70;;;2.60;;
5785;SDS011;2919;48.630;9.000;2022-10-16T16:53:40;9.40;;;3.07;;
5785;SDS011;2919;48.630;9.000;2022-10-16T16:56:06;2.77;;;1.83;;
5785;SDS011;2919;48.630;9.000;2022-10-16T16:58:32;4.37;;;2.33;;
5785;SDS011;2919;48.630;9.000;2022-10-16T17:00:59;6.07;;;1.63;;
5785;SDS011;2919;48.630;9.000;2022-10-16T17:03:27;4.70;;;2.30;;
5785;SDS011;2919;48.630;9.000;2022-10-16T17:08:23;4.40;;;2.27;;
5785;SDS011;2919;48.630;9.000;2022-10-16T17:10:49;8.83;;;3.07;;
5785;SDS011;2919;48.630;9.000;2022-10-16T17:13:17;4.73;;;2.00;;
5785;SDS011;2919;48.630;9.000;2022-10-16T17:15:47;8.17;;;2.40;;
5785;SDS011;2919;48.630;9.000;2022-10-16T17:18:13;9.00;;;4.53;;
5785;SDS011;2919;48.630;9.000;2022-10-16T17:20:39;6.13;;;3.13;;
5785;SDS011;2919;48.630;9.000;2022-10-16T17:23:05;4.77;;;2.90;;
5785;SDS011;2919;48.630;9.000;2022-10-16T17:25:31;5.93;;;2.63;;
5785;SDS011;2919;48.630;9.000;2022-10-16T17:27:56;8.90;;;2.60;;
5785;SDS011;2919;48.630;9.000;2022-10-16T17:30:23;6.73;;;2.40;;
5785;SDS011;2919;48.630;9.000;2022-10-16T17:32:49;3.13;;;1.80;;
5785;SDS011;2919;48.630;9.000;2022-10-16T17:35:14;4.10;;;2.40;;